Time;durP1;ratioP1;P1;durP2;ratioP2;P2;SDS_P1;SDS_P2;PMS_P1;PMS_P2;Temp;Humidity;BMP_temperature;BMP_pressure;BME280_temperature;BME280_humidity;BME280_pressure;Samples;Min_cycle;Max_cycle;Signal;HPM_P1;HPM_P2
2022/08/19 00:01:49;;;;;;;9.30;8.32;;;21.70;99.90;;;;;;5061981;28;20398;-65
2022/08/19 00:04:17;;;;;;;11.05;8.98;;;21.70;99.90;;;;;;5062810;28;20456;-65
2022/08/19 00:06:45;;;;;;;10.48;7.88;;;21.70;99.90;;;;;;5064333;28;20384;-65
2022/08/19 00:09:13;;;;;;;10.60;8.55;;;21.60;99.90;;;;;;5065019;28;20407;-65
2022/08/19 00:11:39;;;;;;;11.02;9.13;;;21.60;99.90;;;;;;5064708;28;20388;-65
2022/08/19 00:14:09;;;;;;;9.85;8.85;;;21.60;99.90;;;;;;5064431;28;20480;-65
2022/08/19 00:16:35;;;;;;;10.82;9.40;;;21.50;99.90;;;;;;5065384;28;20396;-65
2022/08/19 00:19:01;;;;;;;11.98;9.52;;;21.40;99.90;;;;;;5066414;28;20537;-65
2022/08/19 00:21:27;;;;;;;11.68;10.48;;;21.40;99.90;;;;;;5067455;28;20838;-65
2022/08/19 00:23:54;;;;;;;12.93;10.70;;;21.30;99.90;;;;;;5069096;28;20611;-65
2022/08/19 00:26:20;;;;;;;15.40;12.82;;;21.30;99.90;;;;;;5066990;28;20419;-65
2022/08/19 00:28:46;;;;;;;17.33;14.13;;;21.40;99.90;;;;;;5065090;28;20476;-65
2022/08/19 00:31:12;;;;;;;20.27;16.02;;;21.30;99.90;;;;;;5064856;28;20477;-65
2022/08/19 00:33:37;;;;;;;20.10;16.53;;;21.20;99.90;;;;;;5066028;28;20755;-65
2022/08/19 00:36:06;;;;;;;19.73;16.27;;;21.10;99.90;;;;;;5065335;28;21005;-65
2022/08/19 00:38:33;;;;;;;23.35;17.67;;;21.10;99.90;;;;;;5065337;28;20396;-66
2022/08/19 00:40:59;;;;;;;21.67;17.27;;;21.10;99.90;;;;;;5068084;28;20380;-65
2022/08/19 00:43:26;;;;;;;16.93;14.90;;;21.00;99.90;;;;;;5069450;28;20766;-65
2022/08/19 00:45:53;;;;;;;22.02;16.92;;;21.10;99.90;;;;;;5067309;28;20424;-65
2022/08/19 00:48:20;;;;;;;18.10;14.00;;;21.10;99.90;;;;;;5066580;28;20414;-65
2022/08/19 00:50:48;;;;;;;17.88;15.02;;;21.10;99.90;;;;;;5063824;28;20899;-66
2022/08/19 00:53:18;;;;;;;16.75;14.65;;;21.10;99.90;;;;;;5064907;28;20466;-65
2022/08/19 00:55:50;;;;;;;19.38;17.02;;;21.10;99.90;;;;;;5067763;28;20666;-65
2022/08/19 00:58:19;;;;;;;22.83;18.02;;;21.10;99.90;;;;;;5069696;28;20695;-65
2022/08/19 01:00:46;;;;;;;24.90;18.42;;;21.10;99.90;;;;;;5068785;28;20461;-71
2022/08/19 01:03:17;;;;;;;19.50;16.10;;;21.10;99.90;;;;;;5067159;28;20689;-65
2022/08/19 01:05:44;;;;;;;21.55;16.55;;;21.10;99.90;;;;;;5068963;28;20676;-65
2022/08/19 01:08:11;;;;;;;22.95;16.83;;;21.20;99.90;;;;;;5067072;28;20644;-65
2022/08/19 01:10:41;;;;;;;21.95;16.85;;;21.20;99.90;;;;;;5066502;28;20506;-65
2022/08/19 01:13:07;;;;;;;23.02;18.13;;;21.10;99.90;;;;;;5065953;28;20545;-65
2022/08/19 01:15:38;;;;;;;22.10;17.33;;;21.00;99.90;;;;;;5065465;28;20532;-65
2022/08/19 01:18:11;;;;;;;19.80;17.20;;;21.10;99.90;;;;;;5065174;28;20422;-65
2022/08/19 01:20:37;;;;;;;22.27;18.20;;;21.00;99.90;;;;;;5065592;28;20925;-65
2022/08/19 01:23:03;;;;;;;22.33;16.92;;;20.90;99.90;;;;;;5068330;28;20392;-65
2022/08/19 01:25:43;;;;;;;20.77;16.35;;;20.90;99.90;;;;;;5069924;28;20554;-65
2022/08/19 01:28:18;;;;;;;24.50;17.33;;;20.90;99.90;;;;;;5069376;28;20414;-65
2022/08/19 01:30:45;;;;;;;23.90;18.35;;;20.80;99.90;;;;;;5069592;28;20871;-65
2022/08/19 01:33:10;;;;;;;24.55;18.85;;;20.80;99.90;;;;;;5074150;28;20430;-65
2022/08/19 01:35:36;;;;;;;21.45;17.65;;;20.70;99.90;;;;;;5072814;28;20411;-65
2022/08/19 01:38:07;;;;;;;23.05;18.63;;;20.70;99.90;;;;;;5073356;28;20928;-65
2022/08/19 01:40:36;;;;;;;21.53;17.50;;;20.60;99.90;;;;;;5073832;28;20704;-65
2022/08/19 01:43:02;;;;;;;19.67;16.23;;;20.70;99.90;;;;;;5072166;28;20466;-65
2022/08/19 01:45:30;;;;;;;22.75;17.08;;;20.70;99.90;;;;;;5071325;28;20392;-65
2022/08/19 01:47:56;;;;;;;24.33;17.50;;;20.70;99.90;;;;;;5069128;28;20390;-65
2022/08/19 01:50:21;;;;;;;22.10;17.70;;;20.60;99.90;;;;;;5071231;28;20384;-65
2022/08/19 01:52:47;;;;;;;21.93;17.90;;;20.60;99.90;;;;;;5072185;28;20507;-65
2022/08/19 01:55:16;;;;;;;22.50;17.50;;;20.60;99.90;;;;;;5070670;28;20733;-65
2022/08/19 01:57:48;;;;;;;21.08;18.02;;;20.50;99.90;;;;;;5069948;28;20534;-65
2022/08/19 02:00:16;;;;;;;24.35;18.27;;;20.60;99.90;;;;;;5070146;28;20400;-65
2022/08/19 02:02:42;;;;;;;24.05;18.73;;;20.50;99.90;;;;;;5070390;28;20707;-65
2022/08/19 02:05:08;;;;;;;23.95;18.52;;;20.50;99.90;;;;;;5068438;28;20498;-65
2022/08/19 02:07:35;;;;;;;25.13;19.52;;;20.50;99.90;;;;;;5067816;28;20413;-65
2022/08/19 02:10:04;;;;;;;24.50;18.90;;;20.40;99.90;;;;;;5067671;28;20493;-65
2022/08/19 02:12:29;;;;;;;22.40;17.85;;;20.40;99.90;;;;;;5068950;28;20393;-65
2022/08/19 02:14:55;;;;;;;24.20;18.40;;;20.40;99.90;;;;;;5067479;28;20533;-65
2022/08/19 02:17:20;;;;;;;20.05;15.88;;;20.40;99.90;;;;;;5067514;28;20414;-65
2022/08/19 02:19:46;;;;;;;21.07;16.80;;;20.60;99.90;;;;;;5066811;28;20539;-65
2022/08/19 02:22:11;;;;;;;21.95;17.65;;;20.60;99.90;;;;;;5065700;28;20806;-65
2022/08/19 02:24:38;;;;;;;22.73;16.90;;;20.60;99.90;;;;;;5067409;28;20379;-65
2022/08/19 02:27:05;;;;;;;20.58;16.65;;;20.50;99.90;;;;;;5068553;28;20451;-65
2022/08/19 02:29:31;;;;;;;20.52;17.58;;;20.60;99.90;;;;;;5070633;28;20409;-65
2022/08/19 02:31:57;;;;;;;26.95;19.83;;;20.50;99.90;;;;;;5070125;28;20845;-65
2022/08/19 02:34:24;;;;;;;25.52;18.73;;;20.30;99.90;;;;;;5068549;28;20398;-66
2022/08/19 02:36:50;;;;;;;21.15;17.15;;;20.40;99.90;;;;;;5069272;28;20403;-65
2022/08/19 02:39:16;;;;;;;24.50;17.90;;;20.40;99.90;;;;;;5069764;28;20380;-65
2022/08/19 02:41:42;;;;;;;22.43;18.57;;;20.40;99.90;;;;;;5070780;28;20392;-65
2022/08/19 02:44:07;;;;;;;23.65;17.70;;;20.40;99.90;;;;;;5070553;28;20479;-65
2022/08/19 02:46:34;;;;;;;22.97;16.13;;;20.40;99.90;;;;;;5070488;28;20702;-65
2022/08/19 02:49:03;;;;;;;19.67;15.77;;;20.40;99.90;;;;;;5072300;28;20632;-65
2022/08/19 02:51:35;;;;;;;26.00;18.02;;;20.40;99.90;;;;;;5069152;28;20390;-65
2022/08/19 02:54:02;;;;;;;24.63;17.23;;;20.40;99.90;;;;;;5069144;28;20914;-65
2022/08/19 02:56:27;;;;;;;23.83;16.98;;;20.40;99.90;;;;;;5068093;28;20444;-65
2022/08/19 02:58:57;;;;;;;22.75;16.35;;;20.50;99.90;;;;;;5067717;28;20455;-65
2022/08/19 03:01:32;;;;;;;26.15;17.92;;;20.60;99.90;;;;;;5067427;28;20637;-65
2022/08/19 03:04:00;;;;;;;27.55;18.63;;;20.50;99.90;;;;;;5066693;28;20395;-65
2022/08/19 03:06:27;;;;;;;30.80;21.23;;;20.50;99.90;;;;;;5068133;28;20803;-66
2022/08/19 03:08:53;;;;;;;29.40;20.63;;;20.30;99.90;;;;;;5068740;28;20674;-65
2022/08/19 03:11:22;;;;;;;33.17;21.42;;;20.30;99.90;;;;;;5068541;28;20467;-65
2022/08/19 03:13:51;;;;;;;27.38;18.55;;;20.30;99.90;;;;;;5067777;28;20391;-65
2022/08/19 03:16:18;;;;;;;27.45;18.55;;;20.40;99.90;;;;;;5068669;28;20399;-65
2022/08/19 03:18:44;;;;;;;35.80;21.23;;;20.50;99.90;;;;;;5069582;28;20402;-64
2022/08/19 03:21:16;;;;;;;32.63;20.57;;;20.40;99.90;;;;;;5069014;28;20387;-64
2022/08/19 03:23:41;;;;;;;32.17;21.13;;;20.30;99.90;;;;;;5068688;28;20422;-65
2022/08/19 03:26:07;;;;;;;34.65;22.40;;;20.30;99.90;;;;;;5068512;28;20427;-65
2022/08/19 03:28:33;;;;;;;34.07;20.93;;;20.30;99.90;;;;;;5067199;28;20390;-64
2022/08/19 03:31:11;;;;;;;33.27;21.80;;;20.20;99.90;;;;;;5069586;28;20614;-65
2022/08/19 03:33:37;;;;;;;34.40;21.58;;;20.20;99.90;;;;;;5064897;28;20387;-64
2022/08/19 03:36:07;;;;;;;32.67;20.35;;;20.20;99.90;;;;;;5064426;28;20472;-64
2022/08/19 03:38:32;;;;;;;33.50;21.52;;;20.20;99.90;;;;;;5068441;28;20800;-65
2022/08/19 03:41:02;;;;;;;37.37;21.47;;;20.30;99.90;;;;;;5068355;28;20399;-65
2022/08/19 03:43:28;;;;;;;31.50;20.65;;;20.20;99.90;;;;;;5068600;28;20405;-65
2022/08/19 03:46:25;;;;;;;40.60;23.67;;;20.20;99.90;;;;;;5068744;28;20659;-65
2022/08/19 03:48:53;;;;;;;37.13;22.73;;;20.00;99.90;;;;;;5059014;28;20783;-65
2022/08/19 03:51:31;;;;;;;30.10;19.70;;;19.90;99.90;;;;;;5068139;28;20509;-65
2022/08/19 03:53:59;;;;;;;36.88;21.75;;;19.90;99.90;;;;;;5069611;28;20379;-65
2022/08/19 03:56:27;;;;;;;34.90;20.43;;;19.90;99.90;;;;;;5069151;28;20455;-65
2022/08/19 03:58:53;;;;;;;32.72;20.63;;;20.00;99.90;;;;;;5069460;28;20395;-65
2022/08/19 04:01:20;;;;;;;31.05;19.92;;;20.10;99.90;;;;;;5068317;28;20604;-65
2022/08/19 04:03:47;;;;;;;29.23;17.67;;;20.10;99.90;;;;;;5066258;28;20387;-65
2022/08/19 04:06:20;;;;;;;30.35;18.23;;;20.10;99.90;;;;;;5066860;28;20444;-65
2022/08/19 04:08:46;;;;;;;30.33;18.90;;;20.10;99.90;;;;;;5064048;28;20395;-65
2022/08/19 04:11:15;;;;;;;26.63;15.98;;;20.20;99.90;;;;;;5064012;28;20376;-65
2022/08/19 04:13:44;;;;;;;29.27;17.92;;;20.20;99.90;;;;;;5062605;28;20396;-65
2022/08/19 04:16:10;;;;;;;26.35;17.98;;;20.20;99.90;;;;;;5059178;28;20407;-65
2022/08/19 04:18:37;;;;;;;30.83;18.15;;;20.20;99.90;;;;;;5059615;28;20580;-65
2022/08/19 04:21:04;;;;;;;24.65;16.48;;;20.20;99.90;;;;;;5061838;28;20917;-65
2022/08/19 04:23:30;;;;;;;24.92;16.17;;;20.20;99.90;;;;;;5063241;28;20410;-65
2022/08/19 04:25:56;;;;;;;26.48;18.13;;;20.20;99.90;;;;;;5062575;28;20529;-65
2022/08/19 04:28:22;;;;;;;24.00;16.17;;;20.20;99.90;;;;;;5062230;28;20722;-65
2022/08/19 04:30:50;;;;;;;28.15;17.75;;;20.20;99.90;;;;;;5068190;28;20669;-65
2022/08/19 04:33:19;;;;;;;28.88;19.77;;;20.20;99.90;;;;;;5071273;28;20403;-65
2022/08/19 04:35:48;;;;;;;28.95;19.67;;;20.10;99.90;;;;;;5071706;28;20405;-65
2022/08/19 04:38:15;;;;;;;34.47;22.13;;;20.00;99.90;;;;;;5071613;28;20804;-65
2022/08/19 04:43:28;;;;;;;31.98;21.80;;;19.90;99.90;;;;;;5070550;28;20691;-65
2022/08/19 04:45:54;;;;;;;33.80;23.45;;;20.00;99.90;;;;;;5069339;28;20415;-65
2022/08/19 04:48:25;;;;;;;32.25;21.83;;;20.00;99.90;;;;;;5068588;28;20388;-65
2022/08/19 04:50:57;;;;;;;38.20;24.60;;;20.00;99.90;;;;;;5068757;28;20380;-65
2022/08/19 04:53:31;;;;;;;40.90;25.52;;;20.00;99.90;;;;;;5066926;28;20449;-65
2022/08/19 04:55:58;;;;;;;35.40;24.75;;;19.90;99.90;;;;;;5067067;28;20375;-65
2022/08/19 04:58:26;;;;;;;41.05;24.92;;;19.90;99.90;;;;;;5065680;28;20457;-65
2022/08/19 05:00:51;;;;;;;35.88;24.10;;;19.80;99.90;;;;;;5065441;28;20395;-66
2022/08/19 05:03:17;;;;;;;40.77;25.60;;;19.90;99.90;;;;;;5065226;28;20453;-65
2022/08/19 05:05:45;;;;;;;40.47;25.73;;;19.90;99.90;;;;;;5067894;28;20379;-66
2022/08/19 05:08:12;;;;;;;33.65;22.92;;;19.90;99.90;;;;;;5068560;28;20383;-65
2022/08/19 05:10:39;;;;;;;35.50;23.90;;;20.00;99.90;;;;;;5067206;28;20472;-65
2022/08/19 05:13:05;;;;;;;34.53;22.93;;;20.00;99.90;;;;;;5067797;28;20388;-66
2022/08/19 05:15:31;;;;;;;36.17;24.67;;;20.00;99.90;;;;;;5067597;28;20420;-65
2022/08/19 05:23:25;;;;;;;32.60;20.52;;;20.10;99.90;;;;;;5068135;28;20429;-65
2022/08/19 05:25:51;;;;;;;26.93;19.53;;;20.10;99.90;;;;;;5066173;28;20392;-65
2022/08/19 05:28:18;;;;;;;31.75;23.63;;;20.20;99.90;;;;;;5065801;28;20395;-65
2022/08/19 05:30:44;;;;;;;37.97;23.85;;;20.20;99.90;;;;;;5067341;28;20395;-65
2022/08/19 05:33:11;;;;;;;33.70;23.88;;;20.20;99.90;;;;;;5066114;28;20394;-65
2022/08/19 05:35:39;;;;;;;36.47;24.67;;;20.30;99.90;;;;;;5066567;28;20434;-65
2022/08/19 05:38:07;;;;;;;44.80;28.75;;;20.30;99.90;;;;;;5063812;28;20422;-65
2022/08/19 05:40:35;;;;;;;40.78;25.60;;;20.20;99.90;;;;;;5066189;28;20383;-65
2022/08/19 05:43:03;;;;;;;35.90;22.75;;;20.10;99.90;;;;;;5066516;28;20375;-65
2022/08/19 05:45:29;;;;;;;27.57;21.63;;;20.10;99.90;;;;;;5064236;28;20647;-65
2022/08/19 05:47:54;;;;;;;35.27;24.10;;;20.20;99.90;;;;;;5064687;28;20479;-65
2022/08/19 05:50:20;;;;;;;33.33;23.75;;;20.20;99.90;;;;;;5062625;28;20583;-65
2022/08/19 05:52:46;;;;;;;35.78;26.30;;;20.30;99.90;;;;;;5061448;28;20388;-65
2022/08/19 05:55:12;;;;;;;34.70;23.83;;;20.20;99.90;;;;;;5063905;28;20906;-65
2022/08/19 05:57:37;;;;;;;32.67;23.02;;;20.20;99.90;;;;;;5064658;28;20433;-65
2022/08/19 06:00:08;;;;;;;31.85;24.02;;;20.10;99.90;;;;;;5062511;28;20587;-65
2022/08/19 06:02:35;;;;;;;36.13;25.75;;;20.10;99.90;;;;;;5061429;28;20399;-65
2022/08/19 06:05:02;;;;;;;33.72;26.20;;;20.10;99.90;;;;;;5063205;28;20467;-65
2022/08/19 06:07:28;;;;;;;31.98;23.95;;;20.00;99.90;;;;;;5060925;28;20427;-65
2022/08/19 06:09:54;;;;;;;34.15;25.10;;;20.00;99.90;;;;;;5058855;28;20394;-66
2022/08/19 06:12:30;;;;;;;30.67;22.53;;;20.00;99.90;;;;;;5058557;28;20579;-65
2022/08/19 06:14:56;;;;;;;28.73;22.00;;;20.00;99.90;;;;;;5057546;28;20388;-65
2022/08/19 06:17:24;;;;;;;29.80;22.90;;;20.00;99.90;;;;;;5054790;28;20791;-65
2022/08/19 06:19:50;;;;;;;33.42;24.20;;;20.00;99.90;;;;;;5076527;28;20386;-65
2022/08/19 06:22:15;;;;;;;29.10;22.03;;;19.90;99.90;;;;;;5085274;28;20796;-65
2022/08/19 06:24:41;;;;;;;26.23;21.50;;;20.00;99.90;;;;;;5087116;28;20465;-65
2022/08/19 06:27:07;;;;;;;30.35;22.55;;;20.00;99.90;;;;;;5086029;28;20401;-66
2022/08/19 06:29:34;;;;;;;30.42;22.45;;;20.00;99.90;;;;;;5085815;28;20413;-65
2022/08/19 06:32:02;;;;;;;30.38;23.02;;;20.10;99.90;;;;;;5084031;28;20409;-65
2022/08/19 06:34:30;;;;;;;28.60;18.60;;;20.10;99.90;;;;;;5084486;28;20382;-64
2022/08/19 06:36:59;;;;;;;31.75;21.95;;;20.20;99.90;;;;;;5082764;28;20670;-64
2022/08/19 06:39:28;;;;;;;28.35;20.90;;;20.20;99.90;;;;;;5083574;28;20659;-69
2022/08/19 06:41:58;;;;;;;27.73;19.42;;;20.20;99.90;;;;;;5082603;28;20830;-67
2022/08/19 06:44:26;;;;;;;29.90;22.88;;;20.20;99.90;;;;;;5084909;28;20389;-64
2022/08/19 06:46:53;;;;;;;29.75;23.15;;;20.20;99.90;;;;;;5084145;28;20532;-64
2022/08/19 06:49:19;;;;;;;27.98;21.45;;;20.20;99.90;;;;;;5086946;28;20390;-64
2022/08/19 06:51:48;;;;;;;28.70;21.27;;;20.20;99.90;;;;;;5085196;28;20382;-65
2022/08/19 06:54:15;;;;;;;27.33;21.13;;;20.20;99.90;;;;;;5078434;28;20382;-65
2022/08/19 06:56:41;;;;;;;29.05;22.55;;;20.20;99.90;;;;;;5078745;28;20609;-65
2022/08/19 06:59:10;;;;;;;25.45;19.63;;;20.20;99.90;;;;;;5078054;28;20500;-66
2022/08/19 07:01:41;;;;;;;30.90;23.08;;;20.30;99.90;;;;;;5078904;28;20455;-65
2022/08/19 07:04:08;;;;;;;30.30;22.70;;;20.40;99.90;;;;;;5079500;28;20481;-66
2022/08/19 07:06:35;;;;;;;35.42;25.77;;;20.40;99.90;;;;;;5082336;28;20940;-66
2022/08/19 07:09:01;;;;;;;31.87;24.70;;;20.30;99.90;;;;;;5080048;28;20378;-66
2022/08/19 07:11:27;;;;;;;40.57;26.27;;;20.30;99.90;;;;;;5082330;28;20809;-66
2022/08/19 07:13:54;;;;;;;36.93;26.97;;;20.20;99.90;;;;;;5079498;28;20409;-66
2022/08/19 07:16:20;;;;;;;39.67;27.40;;;20.20;99.90;;;;;;5078328;28;20485;-66
2022/08/19 07:18:48;;;;;;;38.22;26.25;;;20.20;99.90;;;;;;5079382;28;20802;-66
2022/08/19 07:21:24;;;;;;;38.65;26.30;;;20.20;99.90;;;;;;5079777;28;20393;-66
2022/08/19 07:23:51;;;;;;;38.95;26.98;;;20.20;99.90;;;;;;5080042;28;20442;-66
2022/08/19 07:26:25;;;;;;;45.22;28.17;;;20.20;99.90;;;;;;5076601;28;20378;-66
2022/08/19 07:28:51;;;;;;;37.95;25.65;;;20.20;99.90;;;;;;5075830;28;20406;-65
2022/08/19 07:31:21;;;;;;;37.58;26.00;;;20.20;99.90;;;;;;5075291;28;20651;-66
2022/08/19 07:33:48;;;;;;;34.63;23.52;;;20.20;99.90;;;;;;5074561;28;20386;-66
2022/08/19 07:36:17;;;;;;;31.80;23.10;;;20.30;99.90;;;;;;5079093;28;20422;-66
2022/08/19 07:38:47;;;;;;;36.78;26.20;;;20.40;99.90;;;;;;5078625;28;20421;-66
2022/08/19 07:41:18;;;;;;;37.38;26.58;;;20.40;99.90;;;;;;5078720;28;20382;-66
2022/08/19 07:43:44;;;;;;;37.72;25.80;;;20.40;99.90;;;;;;5082424;28;20719;-65
2022/08/19 07:46:12;;;;;;;36.30;26.83;;;20.30;99.90;;;;;;5082037;28;20394;-66
2022/08/19 07:48:38;;;;;;;38.08;26.05;;;20.30;99.90;;;;;;5082765;28;20447;-66
2022/08/19 07:51:07;;;;;;;30.88;22.48;;;20.30;99.90;;;;;;5079957;28;20424;-66
2022/08/19 07:53:35;;;;;;;37.83;26.05;;;20.30;99.90;;;;;;5081820;28;20390;-66
2022/08/19 07:56:03;;;;;;;28.13;20.45;;;20.30;99.90;;;;;;5083772;28;20815;-66
2022/08/19 07:58:32;;;;;;;32.33;23.55;;;20.30;99.90;;;;;;5085016;28;20478;-66
2022/08/19 08:00:59;;;;;;;28.77;21.10;;;20.40;99.90;;;;;;5085642;28;20394;-66
2022/08/19 08:09:10;;;;;;;32.50;23.40;;;20.40;99.90;;;;;;5088127;28;20888;-66
2022/08/19 08:11:49;;;;;;;26.10;19.73;;;20.40;99.90;;;;;;5088445;28;20377;-66
2022/08/19 08:14:22;;;;;;;31.27;23.05;;;20.40;99.90;;;;;;5087241;28;20481;-66
2022/08/19 08:16:50;;;;;;;26.90;20.17;;;20.40;99.90;;;;;;5087379;28;20456;-66
2022/08/19 08:19:18;;;;;;;22.25;18.48;;;20.40;99.90;;;;;;5086243;28;20694;-66
2022/08/19 08:21:44;;;;;;;22.00;17.52;;;20.50;99.90;;;;;;5087971;28;21164;-67
2022/08/19 08:24:11;;;;;;;18.67;14.25;;;20.50;99.90;;;;;;5089669;28;20469;-67
2022/08/19 08:26:38;;;;;;;19.05;14.07;;;20.40;99.90;;;;;;5091168;28;20374;-66
2022/08/19 08:29:07;;;;;;;19.73;14.80;;;20.30;99.90;;;;;;5088527;28;20381;-66
2022/08/19 08:31:33;;;;;;;17.65;13.20;;;20.30;99.90;;;;;;5087481;28;20493;-66
2022/08/19 08:33:59;;;;;;;19.13;15.05;;;20.30;99.90;;;;;;5081978;28;20575;-66
2022/08/19 08:36:25;;;;;;;18.15;13.13;;;20.30;99.90;;;;;;5079867;28;20405;-66
2022/08/19 08:38:52;;;;;;;17.60;12.98;;;20.30;99.90;;;;;;5079056;28;20398;-68
2022/08/19 08:41:27;;;;;;;16.45;13.07;;;20.20;99.90;;;;;;5083627;28;20407;-66
2022/08/19 08:43:55;;;;;;;17.17;13.85;;;20.20;99.90;;;;;;5080860;28;20493;-66
2022/08/19 08:46:39;;;;;;;15.40;11.90;;;20.20;99.90;;;;;;5081883;28;20467;-66
2022/08/19 08:49:46;;;;;;;22.48;13.90;;;20.20;99.90;;;;;;5088090;28;20378;-66
2022/08/19 08:52:35;;;;;;;19.42;13.60;;;20.20;99.90;;;;;;5007891;28;20387;-66
2022/08/19 08:55:06;;;;;;;18.08;14.27;;;20.20;99.90;;;;;;5081013;28;20452;-66
2022/08/19 08:57:38;;;;;;;16.63;13.05;;;20.20;99.90;;;;;;5086647;28;20628;-65
2022/08/19 09:00:07;;;;;;;15.68;12.10;;;20.20;99.90;;;;;;5087577;28;20402;-64
2022/08/19 09:02:33;;;;;;;18.20;14.05;;;20.30;99.90;;;;;;5084222;28;20378;-64
2022/08/19 09:04:59;;;;;;;21.30;14.20;;;20.30;99.90;;;;;;5084077;28;20459;-64
2022/08/19 09:07:41;;;;;;;17.73;13.45;;;20.20;99.90;;;;;;5081620;28;20386;-65
2022/08/19 09:10:28;;;;;;;18.92;14.75;;;20.20;99.90;;;;;;5085844;28;20374;-64
2022/08/19 09:13:15;;;;;;;19.90;15.00;;;20.30;99.90;;;;;;5085292;28;20909;-65
2022/08/19 09:15:46;;;;;;;17.73;13.68;;;20.30;99.90;;;;;;5088400;28;20400;-65
2022/08/19 09:18:12;;;;;;;18.97;13.87;;;20.30;99.90;;;;;;5077313;28;20772;-64
2022/08/19 09:20:38;;;;;;;22.25;15.98;;;20.40;99.90;;;;;;5078769;28;20808;-65
2022/08/19 09:23:04;;;;;;;26.02;16.98;;;20.40;99.90;;;;;;5076598;28;20378;-65
2022/08/19 09:25:32;;;;;;;21.67;16.40;;;20.40;99.90;;;;;;5076187;28;20700;-65
2022/08/19 09:28:02;;;;;;;19.92;15.65;;;20.40;99.90;;;;;;5076515;28;20382;-65
2022/08/19 09:30:30;;;;;;;17.97;14.27;;;20.40;99.90;;;;;;5078113;28;20483;-65
2022/08/19 09:32:56;;;;;;;26.60;16.95;;;20.50;99.90;;;;;;5077500;28;20385;-65
2022/08/19 09:35:25;;;;;;;21.88;16.30;;;20.50;99.90;;;;;;5073812;28;20485;-65
2022/08/19 09:37:52;;;;;;;20.52;14.95;;;20.50;99.90;;;;;;5071526;28;20932;-64
2022/08/19 09:40:19;;;;;;;21.50;16.55;;;20.50;99.90;;;;;;5074243;28;20374;-65
2022/08/19 09:42:49;;;;;;;23.80;15.88;;;20.60;99.90;;;;;;5074672;28;20389;-65
2022/08/19 09:45:16;;;;;;;22.48;15.38;;;20.60;99.90;;;;;;5074946;28;20428;-65
2022/08/19 09:47:42;;;;;;;18.65;15.25;;;20.60;99.90;;;;;;5075222;28;20521;-65
2022/08/19 09:50:10;;;;;;;18.70;14.23;;;20.60;99.90;;;;;;5072947;28;20724;-65
2022/08/19 09:52:37;;;;;;;25.90;17.40;;;20.70;99.90;;;;;;5074413;28;20443;-65
2022/08/19 09:55:09;;;;;;;24.63;16.35;;;20.70;99.90;;;;;;5076473;28;20381;-65
2022/08/19 09:57:35;;;;;;;24.30;16.20;;;20.60;99.90;;;;;;5078274;28;20398;-65
2022/08/19 10:00:02;;;;;;;24.08;16.50;;;20.50;99.90;;;;;;5074199;28;20655;-65
2022/08/19 10:02:28;;;;;;;20.10;15.93;;;20.50;99.90;;;;;;5074771;28;20420;-65
2022/08/19 10:07:40;;;;;;;25.73;16.33;;;20.40;99.90;;;;;;5075465;28;20373;-65
2022/08/19 10:10:06;;;;;;;20.90;15.20;;;20.40;99.90;;;;;;5073515;28;20396;-64
2022/08/19 10:12:33;;;;;;;21.80;14.48;;;20.40;99.90;;;;;;5072426;28;20653;-64
2022/08/19 10:15:00;;;;;;;18.77;13.30;;;20.50;99.90;;;;;;5073716;28;20793;-65
2022/08/19 10:17:26;;;;;;;19.52;13.43;;;20.60;99.90;;;;;;5073607;28;20455;-60
2022/08/19 10:19:52;;;;;;;21.55;15.50;;;20.60;99.90;;;;;;5075752;28;20390;-59
2022/08/19 10:22:18;;;;;;;19.27;14.43;;;20.70;99.90;;;;;;5078536;28;20382;-59
2022/08/19 10:24:46;;;;;;;21.95;15.60;;;20.80;99.90;;;;;;5079008;28;20381;-58
2022/08/19 10:27:13;;;;;;;18.23;13.68;;;20.80;99.90;;;;;;5075248;28;20545;-59
2022/08/19 10:29:38;;;;;;;18.85;13.93;;;20.80;99.90;;;;;;5074262;28;20378;-59
2022/08/19 10:32:07;;;;;;;20.77;14.30;;;20.90;99.90;;;;;;5071125;28;20454;-60
2022/08/19 10:34:33;;;;;;;22.98;14.88;;;21.00;99.90;;;;;;5074249;28;20454;-58
2022/08/19 10:37:00;;;;;;;21.60;16.10;;;21.00;99.90;;;;;;5072352;28;20410;-59
2022/08/19 10:39:28;;;;;;;20.00;14.15;;;21.00;99.90;;;;;;5078102;28;20433;-60
2022/08/19 10:41:55;;;;;;;17.77;14.48;;;21.00;99.90;;;;;;5080207;28;20423;-59
2022/08/19 10:44:22;;;;;;;20.60;14.10;;;21.00;99.90;;;;;;5080438;28;20425;-59
2022/08/19 10:46:48;;;;;;;17.57;13.40;;;21.00;99.90;;;;;;5081891;28;20385;-59
2022/08/19 10:49:14;;;;;;;17.03;13.03;;;21.00;99.90;;;;;;5082911;28;20454;-58
2022/08/19 10:56:50;;;;;;;22.50;15.73;;;21.10;99.90;;;;;;5083165;28;20388;-59
2022/08/19 10:57:11;;;;;;;21.00;15.82;;;21.10;99.90;;;;;;5081619;28;20485;-56
2022/08/19 10:59:37;;;;;;;22.73;17.13;;;21.00;99.90;;;;;;5082692;28;20428;-59
2022/08/19 11:02:07;;;;;;;24.90;17.65;;;21.00;99.90;;;;;;5083931;28;20495;-60
2022/08/19 11:04:33;;;;;;;22.97;17.40;;;20.90;99.90;;;;;;5083345;28;20439;-60
2022/08/19 11:07:11;;;;;;;25.60;17.60;;;20.90;99.90;;;;;;5084023;28;20473;-58
2022/08/19 11:09:40;;;;;;;24.38;17.73;;;21.00;99.90;;;;;;5081207;28;20415;-59
2022/08/19 11:12:07;;;;;;;25.52;18.38;;;21.00;99.90;;;;;;5082742;28;20377;-60
2022/08/19 11:14:34;;;;;;;22.17;16.47;;;21.00;99.90;;;;;;5081622;28;20386;-56
2022/08/19 11:16:59;;;;;;;19.90;15.40;;;21.00;99.90;;;;;;5077204;28;20682;-58
2022/08/19 11:19:25;;;;;;;18.50;14.07;;;21.10;99.90;;;;;;5078479;28;20467;-59
2022/08/19 11:21:53;;;;;;;23.17;17.55;;;21.10;99.90;;;;;;5079782;28;20382;-60
2022/08/19 11:24:21;;;;;;;15.90;13.98;;;21.10;99.90;;;;;;5080657;28;20378;-61
2022/08/19 11:26:50;;;;;;;21.35;16.77;;;21.10;99.90;;;;;;5079175;28;20374;-59
2022/08/19 11:29:18;;;;;;;22.88;16.85;;;21.10;99.90;;;;;;5082133;28;20389;-57
2022/08/19 11:31:46;;;;;;;28.00;19.05;;;21.20;99.90;;;;;;5084908;28;20394;-59
2022/08/19 11:34:16;;;;;;;23.65;15.82;;;21.20;99.90;;;;;;5083531;28;20431;-60
2022/08/19 11:36:44;;;;;;;26.10;16.70;;;21.30;99.90;;;;;;5082543;28;20479;-58
2022/08/19 11:39:11;;;;;;;15.13;12.23;;;21.60;99.90;;;;;;5083990;28;20467;-58
2022/08/19 11:41:37;;;;;;;19.70;14.98;;;21.70;99.90;;;;;;5084252;28;20410;-60
2022/08/19 11:44:04;;;;;;;16.58;13.18;;;21.70;99.90;;;;;;5084865;28;20798;-59
2022/08/19 11:46:30;;;;;;;15.15;11.80;;;21.70;99.90;;;;;;5087213;28;20398;-60
2022/08/19 11:49:00;;;;;;;18.73;13.48;;;21.80;99.90;;;;;;5086735;28;20428;-60
2022/08/19 11:51:27;;;;;;;14.50;11.52;;;21.80;99.90;;;;;;5086279;28;20394;-60
2022/08/19 11:53:55;;;;;;;17.52;14.50;;;21.80;99.90;;;;;;5088601;28;20439;-57
2022/08/19 11:56:22;;;;;;;16.87;12.63;;;21.70;99.90;;;;;;5084332;28;20464;-59
2022/08/19 11:58:48;;;;;;;19.53;12.70;;;21.80;99.90;;;;;;5084260;28;20458;-57
2022/08/19 12:01:17;;;;;;;15.10;11.80;;;21.90;99.90;;;;;;5076499;28;20694;-58
2022/08/19 12:03:47;;;;;;;16.30;11.55;;;22.00;99.90;;;;;;5074021;28;20592;-57
2022/08/19 12:06:25;;;;;;;12.27;10.23;;;21.90;99.90;;;;;;5075943;28;20603;-59
2022/08/19 12:08:51;;;;;;;13.00;11.43;;;21.90;99.90;;;;;;5076980;28;20635;-59
2022/08/19 12:11:18;;;;;;;13.93;11.10;;;21.80;99.90;;;;;;5079231;28;20448;-59
2022/08/19 12:13:45;;;;;;;13.15;11.20;;;21.80;99.90;;;;;;5082876;28;20424;-58
2022/08/19 12:16:15;;;;;;;16.40;12.95;;;21.80;99.90;;;;;;5080071;28;20402;-59
2022/08/19 12:18:45;;;;;;;13.00;10.57;;;21.70;99.90;;;;;;5077411;28;20714;-58
2022/08/19 12:21:15;;;;;;;17.05;12.35;;;21.70;99.90;;;;;;5078184;28;20378;-59
2022/08/19 12:23:42;;;;;;;14.63;11.93;;;21.70;99.90;;;;;;5076321;28;20393;-59
2022/08/19 12:26:10;;;;;;;14.40;10.90;;;21.70;99.90;;;;;;5070010;28;20511;-56
2022/08/19 12:28:37;;;;;;;16.23;12.30;;;21.80;99.90;;;;;;5070605;28;20373;-57
2022/08/19 12:31:03;;;;;;;11.85;10.60;;;21.90;99.90;;;;;;5074197;28;20786;-59
2022/08/19 12:33:29;;;;;;;12.98;10.77;;;22.00;99.90;;;;;;5072580;28;20664;-58
2022/08/19 12:35:59;;;;;;;11.33;9.83;;;22.20;99.90;;;;;;5072050;28;20649;-56
2022/08/19 12:38:25;;;;;;;12.30;10.95;;;22.30;99.90;;;;;;5057707;28;20401;-59
2022/08/19 12:40:51;;;;;;;10.20;8.93;;;22.50;99.90;;;;;;5073176;28;20436;-57
2022/08/19 12:43:19;;;;;;;11.57;8.85;;;22.60;99.90;;;;;;5055240;28;20581;-57
2022/08/19 12:45:45;;;;;;;11.20;8.97;;;22.80;99.90;;;;;;5074087;28;20724;-58
2022/08/19 12:48:11;;;;;;;8.87;7.43;;;23.00;99.90;;;;;;5054318;28;20393;-58
2022/08/19 12:50:44;;;;;;;10.15;8.48;;;23.10;99.90;;;;;;5055514;28;20388;-59
2022/08/19 12:53:11;;;;;;;12.25;8.68;;;23.10;99.90;;;;;;5075378;28;20546;-59